Time;durP1;ratioP1;P1;durP2;ratioP2;P2;SDS_P1;SDS_P2;PMS_P1;PMS_P2;Temp;Humidity;BMP_temperature;BMP_pressure;BME280_temperature;BME280_humidity;BME280_pressure;Samples;Min_cycle;Max_cycle;Signal;HPM_P1;HPM_P2
2021/06/15 00:01:10;;;;;;;3.70;3.22;;;;;;;12.46;76.39;93833.28;6199003;23;20498;-78
2021/06/15 00:03:35;;;;;;;30.65;12.15;;;;;;;12.39;77.14;93843.53;6207963;23;20070;-77
2021/06/15 00:06:01;;;;;;;3.83;3.30;;;;;;;12.45;77.10;93826.44;6200747;23;20348;-78
2021/06/15 00:08:27;;;;;;;12.50;3.50;;;;;;;12.35;77.13;93821.38;6173724;23;20023;-77
2021/06/15 00:10:52;;;;;;;4.10;3.35;;;;;;;12.43;77.11;93839.22;6206153;23;20330;-78
2021/06/15 00:13:17;;;;;;;7.50;4.10;;;;;;;12.36;76.76;93828.25;6208182;23;20086;-78
2021/06/15 00:15:47;;;;;;;4.53;3.30;;;;;;;12.46;76.11;93829.88;6204025;23;20012;-78
2021/06/15 00:18:14;;;;;;;7.18;3.13;;;;;;;12.45;75.87;93813.19;6194614;23;20016;-78
2021/06/15 00:20:40;;;;;;;4.85;3.83;;;;;;;12.47;75.64;93821.63;6200725;23;20020;-79
2021/06/15 00:23:05;;;;;;;7.97;3.80;;;;;;;12.43;75.85;93822.53;6199757;23;20451;-78
2021/06/15 00:25:31;;;;;;;5.35;3.25;;;;;;;12.41;75.96;93812.22;6200368;23;20078;-79
2021/06/15 00:27:56;;;;;;;3.17;2.72;;;;;;;12.47;75.88;93821.63;6208471;23;20047;-79
2021/06/15 00:30:22;;;;;;;5.93;3.35;;;;;;;12.41;75.72;93825.47;6201495;23;20478;-79
2021/06/15 00:32:50;;;;;;;5.38;3.20;;;;;;;12.38;75.32;93815.47;6201421;23;20052;-79
2021/06/15 00:35:16;;;;;;;6.47;3.45;;;;;;;12.31;75.73;93815.09;6200441;23;20384;-79
2021/06/15 00:37:42;;;;;;;4.55;3.22;;;;;;;12.21;76.22;93803.94;6207702;23;20091;-79
2021/06/15 00:40:10;;;;;;;5.88;3.20;;;;;;;12.26;76.38;93822.38;6194310;23;20099;-79
2021/06/15 00:42:36;;;;;;;4.43;3.40;;;;;;;12.25;76.77;93821.59;6199835;23;19997;-78
2021/06/15 00:45:05;;;;;;;4.75;3.10;;;;;;;12.11;77.17;93826.13;6197820;23;20016;-78
2021/06/15 00:47:31;;;;;;;3.53;3.22;;;;;;;12.01;77.69;93826.34;6201762;23;20024;-78
2021/06/15 00:49:56;;;;;;;5.82;3.90;;;;;;;11.93;77.82;93835.75;6202135;23;20008;-77
2021/06/15 00:52:22;;;;;;;4.15;3.75;;;;;;;12.06;78.12;93828.88;6198246;23;20077;-78
2021/06/15 00:54:49;;;;;;;4.55;3.90;;;;;;;12.03;78.12;93834.75;6208515;23;20008;-78
2021/06/15 00:57:16;;;;;;;5.05;3.85;;;;;;;12.10;77.47;93837.81;6199429;23;20016;-78
2021/06/15 00:59:42;;;;;;;6.15;4.15;;;;;;;12.08;77.44;93837.31;6197831;23;20028;-78
2021/06/15 01:02:08;;;;;;;7.65;3.50;;;;;;;12.07;77.94;93838.41;6197625;23;20260;-78
2021/06/15 01:04:33;;;;;;;5.07;3.90;;;;;;;12.07;78.06;93841.06;6198223;23;20106;-77
2021/06/15 01:07:06;;;;;;;4.53;3.17;;;;;;;12.22;77.51;93835.41;6213736;23;20134;-78
2021/06/15 01:10:10;;;;;;;5.97;3.60;;;;;;;12.28;77.47;93842.19;6199544;23;20240;-78
2021/06/15 01:12:47;;;;;;;11.38;3.67;;;;;;;12.37;77.04;93840.38;6199154;23;20017;-78
2021/06/15 01:15:22;;;;;;;6.68;4.03;;;;;;;12.37;76.30;93824.50;6199893;23;20016;-78
2021/06/15 01:17:52;;;;;;;3.60;3.30;;;;;;;12.44;76.57;93835.47;6202561;23;20016;-77
2021/06/15 01:20:20;;;;;;;3.90;3.60;;;;;;;12.46;76.21;93838.59;6172191;23;20531;-77
2021/06/15 01:23:11;;;;;;;5.75;3.13;;;;;;;12.58;75.84;93844.19;6207287;23;20247;-78
2021/06/15 01:26:04;;;;;;;4.20;3.38;;;;;;;12.65;75.75;93840.34;6170484;23;20499;-78
2021/06/15 01:28:45;;;;;;;4.22;3.38;;;;;;;12.71;75.65;93841.75;6200103;23;20012;-78
2021/06/15 01:31:16;;;;;;;9.90;4.18;;;;;;;12.78;74.91;93839.50;6172943;23;20012;-78
2021/06/15 01:33:46;;;;;;;3.78;3.42;;;;;;;12.83;74.79;93831.41;6175375;23;20012;-78
2021/06/15 01:36:15;;;;;;;3.53;3.05;;;;;;;12.69;75.82;93831.47;6199860;23;20019;-78
2021/06/15 01:38:44;;;;;;;4.45;2.88;;;;;;;12.69;74.96;93815.56;6172944;23;20367;-78
2021/06/15 01:41:13;;;;;;;9.13;3.45;;;;;;;12.61;75.09;93807.56;6202642;23;20023;-77
2021/06/15 01:43:44;;;;;;;6.50;3.60;;;;;;;12.62;75.35;93812.53;6172386;23;20456;-78
2021/06/15 01:46:12;;;;;;;3.50;3.20;;;;;;;12.53;75.38;93807.19;6199381;23;20375;-78
2021/06/15 01:48:52;;;;;;;10.93;3.55;;;;;;;12.51;75.47;93817.28;6202295;23;20007;-78
2021/06/15 01:51:21;;;;;;;6.25;3.30;;;;;;;12.36;75.88;93811.56;6173380;23;20351;-78
2021/06/15 01:53:51;;;;;;;4.57;3.58;;;;;;;12.41;76.18;93814.09;6197343;23;20023;-78
2021/06/15 01:56:18;;;;;;;8.70;4.45;;;;;;;12.48;75.59;93809.94;6199205;23;20025;-78
2021/06/15 01:58:46;;;;;;;3.92;3.47;;;;;;;12.45;75.85;93804.47;6203597;23;20019;-78
2021/06/15 02:01:12;;;;;;;4.40;3.92;;;;;;;12.37;75.70;93798.00;6204559;23;20474;-79
2021/06/15 02:03:38;;;;;;;5.25;3.80;;;;;;;12.32;76.22;93800.75;6172224;23;20016;-77
2021/06/15 02:06:05;;;;;;;7.20;3.63;;;;;;;12.37;76.21;93802.50;6200262;23;20055;-78
2021/06/15 02:08:34;;;;;;;8.98;3.53;;;;;;;12.23;76.53;93784.00;6196077;23;20059;-77
2021/06/15 02:11:01;;;;;;;6.70;4.30;;;;;;;12.32;76.32;93790.16;6172951;23;20012;-77
2021/06/15 02:13:29;;;;;;;8.85;3.35;;;;;;;12.41;75.66;93798.94;6198752;23;20524;-78
2021/06/15 02:15:56;;;;;;;4.88;3.50;;;;;;;12.32;76.05;93792.00;6213689;23;20004;-77
2021/06/15 02:18:22;;;;;;;3.63;3.15;;;;;;;12.39;75.97;93779.94;6195975;23;20022;-77
2021/06/15 02:20:49;;;;;;;4.93;3.35;;;;;;;12.40;75.64;93784.16;6198538;23;20016;-78
2021/06/15 02:23:21;;;;;;;4.20;3.38;;;;;;;12.47;75.49;93781.06;6198329;23;20412;-80
2021/06/15 02:25:52;;;;;;;6.45;3.28;;;;;;;12.28;76.31;93783.88;6204739;23;20004;-78
2021/06/15 02:28:19;;;;;;;4.40;4.00;;;;;;;12.25;76.86;93778.41;6205980;23;20000;-78
2021/06/15 02:30:44;;;;;;;4.57;4.18;;;;;;;12.17;77.58;93782.53;6207983;23;20001;-77
2021/06/15 02:33:23;;;;;;;4.47;4.10;;;;;;;12.07;78.19;93783.53;6198288;23;20099;-77
2021/06/15 02:35:57;;;;;;;6.28;3.63;;;;;;;11.98;78.75;93784.53;6198338;23;20132;-77
2021/06/15 02:38:31;;;;;;;5.85;3.50;;;;;;;12.13;78.42;93787.66;6170939;23;20021;-78
2021/06/15 02:41:03;;;;;;;4.20;3.80;;;;;;;12.17;78.60;93795.78;6204572;23;20016;-77
2021/06/15 02:43:29;;;;;;;4.68;3.80;;;;;;;12.09;78.85;93786.69;6172136;23;20098;-77
2021/06/15 02:45:56;;;;;;;4.35;3.95;;;;;;;12.15;78.63;93774.91;6211026;23;20015;-77
2021/06/15 02:48:31;;;;;;;6.85;4.53;;;;;;;12.37;77.58;93776.00;6199893;23;20070;-77
2021/06/15 02:50:58;;;;;;;8.95;4.18;;;;;;;12.37;77.42;93771.50;6202553;23;20115;-77
2021/06/15 02:53:35;;;;;;;9.23;3.90;;;;;;;12.37;77.92;93766.19;6171900;23;20036;-77
2021/06/15 02:56:26;;;;;;;3.70;3.40;;;;;;;12.33;78.00;93791.72;6171865;23;20087;-77
2021/06/15 02:58:51;;;;;;;6.20;3.80;;;;;;;12.23;78.66;93797.25;6197863;23;20020;-77
2021/06/15 03:01:16;;;;;;;5.97;4.55;;;;;;;12.11;79.49;93794.34;6198330;23;20316;-78
2021/06/15 03:03:42;;;;;;;7.53;5.43;;;;;;;12.14;79.40;93793.75;6212014;23;20004;-77
2021/06/15 03:06:07;;;;;;;10.10;5.15;;;;;;;12.22;79.90;93800.22;6197998;23;20592;-77
2021/06/15 03:08:34;;;;;;;5.80;4.75;;;;;;;12.18;79.99;93810.59;6194228;23;20021;-77
2021/06/15 03:11:03;;;;;;;11.88;4.63;;;;;;;12.27;79.38;93811.47;6198885;23;20414;-77
2021/06/15 03:13:46;;;;;;;6.20;4.88;;;;;;;12.26;79.66;93809.91;6207520;23;20020;-76
2021/06/15 03:16:16;;;;;;;5.90;3.97;;;;;;;12.37;79.31;93821.06;6205260;23;20001;-77
2021/06/15 03:19:01;;;;;;;6.80;4.20;;;;;;;12.37;79.29;93845.69;6175117;23;20009;-77
2021/06/15 03:21:31;;;;;;;6.60;3.95;;;;;;;12.40;78.83;93834.50;6199000;23;20027;-77
2021/06/15 03:24:02;;;;;;;7.43;3.97;;;;;;;12.42;79.13;93852.75;6172444;23;20329;-77
2021/06/15 03:26:36;;;;;;;6.90;4.75;;;;;;;12.47;79.34;93856.06;6202533;23;20444;-77
2021/06/15 03:29:03;;;;;;;7.07;4.70;;;;;;;12.47;79.27;93861.38;6170042;23;20013;-77
2021/06/15 03:31:33;;;;;;;7.07;4.28;;;;;;;12.67;78.86;93880.56;6198138;23;20266;-77
2021/06/15 03:34:00;;;;;;;6.00;4.35;;;;;;;12.67;78.50;93880.56;6201539;23;20370;-77
2021/06/15 03:36:26;;;;;;;8.75;4.78;;;;;;;12.71;78.10;93881.53;6197272;23;20077;-77
2021/06/15 03:38:55;;;;;;;5.82;4.10;;;;;;;12.81;78.17;93876.78;6198979;23;20024;-77
2021/06/15 03:41:22;;;;;;;5.72;4.13;;;;;;;12.97;77.88;93887.84;6202899;23;20463;-77
2021/06/15 03:43:56;;;;;;;7.72;4.22;;;;;;;13.12;77.33;93876.13;6168909;23;20023;-77
2021/06/15 03:46:24;;;;;;;4.88;3.30;;;;;;;13.21;76.76;93869.78;6207372;23;20106;-77
2021/06/15 03:48:52;;;;;;;4.38;3.10;;;;;;;13.39;76.10;93866.16;6210140;23;20008;-77
2021/06/15 03:51:23;;;;;;;9.80;3.85;;;;;;;13.61;75.50;93856.59;6195288;23;20020;-77
2021/06/15 03:53:50;;;;;;;6.47;3.05;;;;;;;14.06;74.20;93854.59;6200819;23;20099;-77
2021/06/15 03:56:18;;;;;;;3.75;2.78;;;;;;;14.78;71.64;93836.25;6196351;23;20021;-78
2021/06/15 03:58:44;;;;;;;2.70;2.03;;;;;;;15.61;67.31;93842.13;6193528;23;20019;-77
2021/06/15 04:01:13;;;;;;;5.15;2.30;;;;;;;15.85;64.74;93841.56;6197956;23;20019;-77
2021/06/15 04:03:41;;;;;;;5.35;2.20;;;;;;;16.09;62.75;93863.09;6208808;23;20035;-80
2021/06/15 04:06:09;;;;;;;3.42;2.75;;;;;;;16.03;63.12;93859.81;6170799;23;20319;-77
2021/06/15 04:08:37;;;;;;;4.75;2.88;;;;;;;15.98;63.49;93853.88;6197397;23;20132;-78
2021/06/15 04:11:06;;;;;;;2.80;2.50;;;;;;;15.84;63.33;93872.75;6201317;23;20032;-78
2021/06/15 04:13:34;;;;;;;2.83;2.50;;;;;;;15.85;62.65;93882.31;6194303;23;20534;-80
2021/06/15 04:16:01;;;;;;;6.43;2.83;;;;;;;15.72;62.90;93880.63;6199047;23;20008;-77
2021/06/15 04:18:29;;;;;;;8.40;2.53;;;;;;;15.82;62.90;93885.63;6181646;23;20482;-77
2021/06/15 04:20:59;;;;;;;3.35;2.67;;;;;;;15.68;63.43;93882.38;6195708;23;20100;-78
2021/06/15 04:23:30;;;;;;;2.80;2.60;;;;;;;15.59;63.25;93881.59;6202644;23;20012;-78
2021/06/15 04:25:56;;;;;;;8.00;2.60;;;;;;;15.86;62.21;93881.22;6201955;23;20095;-78
2021/06/15 04:28:22;;;;;;;3.63;2.47;;;;;;;16.17;61.84;93880.16;6200192;23;20030;-77
2021/06/15 04:30:49;;;;;;;3.55;2.30;;;;;;;16.69;60.37;93876.13;6173433;23;20332;-78
2021/06/15 04:33:16;;;;;;;4.35;2.30;;;;;;;17.24;59.07;93877.75;6196207;23;20017;-78
2021/06/15 04:35:46;;;;;;;3.83;2.10;;;;;;;17.57;56.89;93883.09;6171727;23;20034;-77
2021/06/15 04:38:13;;;;;;;3.85;1.98;;;;;;;17.95;56.32;93877.53;6204521;23;20106;-77
2021/06/15 04:40:48;;;;;;;2.88;1.90;;;;;;;18.26;54.68;93875.13;6200142;23;20012;-78
2021/06/15 04:43:32;;;;;;;4.38;2.08;;;;;;;18.84;53.61;93881.91;6207436;23;20047;-78
2021/06/15 04:46:12;;;;;;;2.70;1.85;;;;;;;19.23;52.36;93871.53;6211905;23;20054;-77
2021/06/15 04:48:39;;;;;;;2.03;1.83;;;;;;;19.31;50.79;93879.41;6174070;23;20027;-78
2021/06/15 04:51:05;;;;;;;2.30;1.70;;;;;;;19.35;49.94;93874.94;6198621;23;20027;-78
2021/06/15 04:53:38;;;;;;;3.13;2.33;;;;;;;19.36;49.65;93884.53;6199053;23;20031;-77
2021/06/15 04:56:06;;;;;;;2.90;2.05;;;;;;;19.21;50.73;93874.53;6173549;23;20055;-78
2021/06/15 04:58:34;;;;;;;6.95;1.95;;;;;;;19.23;50.90;93858.13;6199721;23;21011;-78
2021/06/15 05:01:00;;;;;;;2.90;2.08;;;;;;;19.13;50.82;93878.16;6211725;23;20442;-77
2021/06/15 05:03:28;;;;;;;3.83;2.25;;;;;;;19.63;50.78;93874.19;6196240;23;20099;-77
2021/06/15 05:05:54;;;;;;;2.60;1.50;;;;;;;20.13;49.00;93870.88;6199431;23;20290;-77
2021/06/15 05:08:24;;;;;;;4.07;1.80;;;;;;;20.36;49.05;93881.81;6198554;23;20360;-78
2021/06/15 05:10:51;;;;;;;3.65;1.55;;;;;;;20.46;48.09;93883.97;6206325;23;20376;-78
2021/06/15 05:13:18;;;;;;;3.67;1.52;;;;;;;20.75;47.63;93878.13;6198029;23;20439;-78
2021/06/15 05:15:44;;;;;;;4.38;1.85;;;;;;;20.85;47.10;93880.28;6208787;23;20004;-78
2021/06/15 05:18:10;;;;;;;4.53;2.55;;;;;;;21.08;46.15;93875.00;6173582;23;20448;-77
2021/06/15 05:20:36;;;;;;;3.90;2.38;;;;;;;20.91;46.33;93878.88;6201276;23;20020;-78
2021/06/15 05:23:26;;;;;;;4.25;2.35;;;;;;;21.10;46.67;93878.91;6199376;23;20347;-78
2021/06/15 05:25:51;;;;;;;2.65;2.45;;;;;;;21.12;46.61;93886.59;6173579;23;20012;-78
2021/06/15 05:28:17;;;;;;;8.77;2.63;;;;;;;21.08;46.61;93889.22;6172265;23;20514;-78
2021/06/15 05:30:43;;;;;;;6.50;2.45;;;;;;;21.04;47.42;93899.09;6211511;23;20540;-79
2021/06/15 05:33:11;;;;;;;9.23;2.30;;;;;;;21.26;46.19;93910.34;6200461;23;20027;-78
2021/06/15 05:35:38;;;;;;;2.72;2.20;;;;;;;21.23;46.03;93911.81;6171242;23;20272;-78
2021/06/15 05:38:03;;;;;;;4.55;2.20;;;;;;;21.27;46.71;93911.88;6200802;23;20024;-78
2021/06/15 05:40:29;;;;;;;5.90;2.58;;;;;;;21.58;45.47;93911.75;6196916;23;20022;-79
2021/06/15 05:42:54;;;;;;;3.10;2.15;;;;;;;21.45;45.79;93913.81;6210914;23;20008;-77
2021/06/15 05:45:20;;;;;;;3.50;2.35;;;;;;;21.26;45.58;93921.09;6171310;23;20347;-78
2021/06/15 05:47:45;;;;;;;6.75;2.78;;;;;;;21.10;45.71;93926.47;6203657;23;20013;-78
2021/06/15 05:50:13;;;;;;;5.50;2.70;;;;;;;20.95;45.70;93919.25;6204879;23;20024;-78
2021/06/15 05:52:39;;;;;;;2.60;2.40;;;;;;;21.27;45.47;93912.66;6197577;23;20030;-78
2021/06/15 05:55:05;;;;;;;3.80;2.70;;;;;;;21.52;45.36;93918.56;6199661;23;20479;-79
2021/06/15 05:57:31;;;;;;;5.70;2.70;;;;;;;21.88;45.34;93914.66;6199070;23;20091;-78
2021/06/15 05:59:58;;;;;;;5.07;2.80;;;;;;;22.28;44.75;93908.88;6197355;23;20284;-79
2021/06/15 06:02:27;;;;;;;4.72;2.08;;;;;;;22.63;43.46;93911.31;6170282;23;20013;-79
2021/06/15 06:10:07;;;;;;;4.47;2.72;;;;;;;22.56;42.52;93906.63;6209216;23;20521;-79
2021/06/15 06:12:32;;;;;;;4.47;2.58;;;;;;;23.28;42.47;93903.84;6200628;23;20000;-79
2021/06/15 06:14:58;;;;;;;6.53;2.63;;;;;;;24.00;41.31;93900.84;6194121;23;20460;-80
2021/06/15 06:17:24;;;;;;;4.50;2.75;;;;;;;24.68;39.85;93899.59;6202117;23;20016;-78
2021/06/15 06:19:50;;;;;;;5.32;2.30;;;;;;;25.28;39.05;93900.78;6198878;23;20035;-78
2021/06/15 06:22:15;;;;;;;7.03;2.75;;;;;;;25.79;38.36;93897.16;6170970;23;20102;-79
2021/06/15 06:24:41;;;;;;;3.55;2.08;;;;;;;26.37;37.66;93896.16;6170682;23;20004;-79
2021/06/15 06:27:07;;;;;;;4.60;2.80;;;;;;;26.79;36.22;93884.53;6196796;23;20012;-80
2021/06/15 06:29:32;;;;;;;5.78;2.33;;;;;;;26.67;35.53;93883.03;6170001;23;20023;-79
2021/06/15 06:31:58;;;;;;;3.35;2.25;;;;;;;27.10;35.30;93884.56;6205260;23;20238;-79
2021/06/15 06:34:23;;;;;;;5.97;1.90;;;;;;;27.20;34.89;93882.19;6198375;23;20016;-79
2021/06/15 06:36:49;;;;;;;3.45;2.20;;;;;;;27.05;35.33;93890.38;6199914;23;20011;-79
2021/06/15 06:39:15;;;;;;;3.80;1.50;;;;;;;27.20;34.66;93877.56;6198315;23;20079;-80
2021/06/15 06:41:40;;;;;;;2.65;1.92;;;;;;;27.84;34.33;93888.22;6197062;23;20363;-79
2021/06/15 06:44:07;;;;;;;2.15;1.25;;;;;;;28.32;33.21;93885.63;6198202;23;20025;-80
2021/06/15 06:46:33;;;;;;;3.17;1.45;;;;;;;28.66;31.87;93900.16;6171677;23;20340;-80
2021/06/15 06:48:58;;;;;;;4.15;1.40;;;;;;;27.98;32.02;93893.56;6174503;23;20535;-79
2021/06/15 06:51:24;;;;;;;4.25;1.50;;;;;;;28.03;32.88;93887.72;6172481;23;20028;-78
2021/06/15 06:53:49;;;;;;;5.55;1.83;;;;;;;28.39;32.30;93880.91;6202191;23;20016;-79
2021/06/15 06:56:15;;;;;;;5.28;1.40;;;;;;;28.89;31.95;93879.78;6203348;23;20017;-80
2021/06/15 06:58:40;;;;;;;3.70;1.50;;;;;;;29.92;31.53;93879.50;6173430;23;20424;-79
2021/06/15 07:01:06;;;;;;;2.30;1.60;;;;;;;30.57;28.90;93880.16;6198589;23;20473;-79
2021/06/15 07:03:31;;;;;;;2.92;1.42;;;;;;;31.05;28.28;93880.56;6211996;23;20455;-80
2021/06/15 07:05:57;;;;;;;3.63;1.33;;;;;;;31.50;27.60;93875.44;6196385;23;20320;-80
2021/06/15 07:08:24;;;;;;;1.95;1.23;;;;;;;32.03;26.95;93873.63;6203011;23;20044;-80
2021/06/15 07:10:49;;;;;;;2.13;1.40;;;;;;;31.58;26.88;93876.09;6197159;23;20012;-80
2021/06/15 07:13:15;;;;;;;3.33;1.13;;;;;;;32.04;26.36;93875.94;6197055;23;20012;-80
2021/06/15 07:15:40;;;;;;;2.78;1.55;;;;;;;31.94;26.99;93866.00;6210935;23;20091;-80
2021/06/15 07:18:06;;;;;;;2.78;1.40;;;;;;;31.87;26.71;93866.16;6196442;23;20139;-81
2021/06/15 07:20:31;;;;;;;4.10;1.70;;;;;;;31.33;27.79;93865.63;6199548;23;20052;-78
2021/06/15 07:22:59;;;;;;;1.42;1.33;;;;;;;30.47;28.27;93879.13;6172646;23;20039;-81
2021/06/15 07:25:27;;;;;;;4.32;1.50;;;;;;;29.96;28.87;93866.59;6199317;23;20021;-81
2021/06/15 07:27:55;;;;;;;5.40;2.13;;;;;;;28.94;30.28;93865.75;6202242;23;20427;-80
2021/06/15 07:30:21;;;;;;;3.95;1.80;;;;;;;28.80;30.76;93870.16;6198489;23;20051;-82
2021/06/15 07:32:47;;;;;;;3.58;1.42;;;;;;;29.11;31.63;93870.25;6200975;23;20012;-81
2021/06/15 07:35:13;;;;;;;5.55;2.05;;;;;;;29.40;30.31;93868.81;6188320;23;20535;-80
2021/06/15 07:37:39;;;;;;;6.40;1.90;;;;;;;29.09;30.15;93856.28;6171920;23;20104;-80
2021/06/15 07:40:08;;;;;;;4.45;1.98;;;;;;;29.55;30.28;93867.47;6156872;23;20013;-79
2021/06/15 07:42:33;;;;;;;4.97;1.65;;;;;;;30.35;30.27;93864.09;6175879;23;20020;-80
2021/06/15 07:45:01;;;;;;;3.67;1.60;;;;;;;31.27;28.67;93846.25;6194568;23;20104;-80
2021/06/15 07:47:27;;;;;;;3.35;1.40;;;;;;;31.93;27.26;93845.31;6197739;23;20173;-80
2021/06/15 07:49:57;;;;;;;4.22;1.30;;;;;;;32.00;26.94;93853.38;6196521;23;20013;-80
2021/06/15 07:52:27;;;;;;;3.08;1.77;;;;;;;32.67;25.90;93840.19;6209467;23;20351;-82
2021/06/15 07:55:00;;;;;;;4.50;1.10;;;;;;;33.26;26.16;93841.84;6177708;23;20004;-80
2021/06/15 07:57:25;;;;;;;4.90;1.38;;;;;;;32.93;25.47;93832.91;6200554;23;20016;-82
2021/06/15 07:59:51;;;;;;;3.90;1.40;;;;;;;32.98;26.89;93844.09;6204568;23;20478;-82
2021/06/15 08:02:16;;;;;;;1.90;1.20;;;;;;;33.10;25.56;93850.81;6201371;23;20012;-82
2021/06/15 08:04:42;;;;;;;3.03;1.00;;;;;;;33.45;24.69;93846.41;6196988;23;20020;-80
2021/06/15 08:07:07;;;;;;;4.00;1.20;;;;;;;33.57;24.64;93851.19;6170976;23;20004;-80
2021/06/15 08:09:33;;;;;;;2.30;1.40;;;;;;;33.86;23.24;93840.97;6211562;23;20002;-79
2021/06/15 08:11:58;;;;;;;4.60;1.33;;;;;;;34.00;24.49;93842.53;6199526;23;20020;-81
2021/06/15 08:14:23;;;;;;;2.83;1.20;;;;;;;33.84;23.64;93846.13;6204130;23;20025;-81
2021/06/15 08:16:49;;;;;;;1.60;1.30;;;;;;;33.88;24.02;93844.03;6201156;23;20023;-80
2021/06/15 08:19:14;;;;;;;3.50;1.48;;;;;;;33.87;24.28;93841.72;6200255;23;20445;-81
2021/06/15 08:21:40;;;;;;;4.47;1.48;;;;;;;33.89;23.96;93839.31;6202931;23;20088;-82
2021/06/15 08:24:06;;;;;;;5.28;1.90;;;;;;;34.04;26.17;93842.41;6201251;23;20162;-82
2021/06/15 08:26:31;;;;;;;3.35;1.52;;;;;;;34.47;25.46;93834.44;6199382;23;20492;-80
2021/06/15 08:28:57;;;;;;;4.00;1.42;;;;;;;34.38;24.65;93839.06;6208003;23;20100;-80
2021/06/15 08:31:22;;;;;;;3.72;1.85;;;;;;;34.30;23.85;93827.53;6207868;23;20022;-81
2021/06/15 08:33:48;;;;;;;3.58;1.30;;;;;;;33.50;24.44;93819.25;6210630;23;20418;-81
2021/06/15 08:36:13;;;;;;;4.43;1.83;;;;;;;33.75;24.67;93835.03;6200489;23;20016;-80
2021/06/15 08:38:38;;;;;;;3.55;1.45;;;;;;;33.77;24.96;93818.88;6200010;23;20012;-80
2021/06/15 08:41:07;;;;;;;5.20;1.20;;;;;;;33.98;24.63;93828.47;6199156;23;20459;-80
2021/06/15 08:43:32;;;;;;;3.42;1.30;;;;;;;33.48;24.45;93834.56;6208025;23;20092;-81
2021/06/15 08:45:58;;;;;;;8.00;1.75;;;;;;;32.57;25.25;93833.75;6212807;23;20039;-81
2021/06/15 08:48:23;;;;;;;3.10;1.10;;;;;;;32.61;24.42;93830.91;6200143;23;20021;-81
2021/06/15 08:50:50;;;;;;;1.65;1.10;;;;;;;33.19;25.98;93825.59;6170599;23;20205;-80
2021/06/15 08:53:15;;;;;;;4.20;1.42;;;;;;;32.84;25.00;93833.47;6199415;23;20325;-80
2021/06/15 08:55:48;;;;;;;2.45;1.50;;;;;;;32.11;26.18;93837.53;6201394;23;20016;-80
2021/06/15 08:58:44;;;;;;;3.00;1.15;;;;;;;32.48;26.68;93832.81;6206967;23;20008;-80
2021/06/15 09:01:11;;;;;;;5.15;1.95;;;;;;;31.34;26.12;93831.66;6170988;23;20012;-80
2021/06/15 09:03:38;;;;;;;2.65;1.40;;;;;;;31.24;27.61;93825.22;6202714;23;20008;-80
2021/06/15 09:06:04;;;;;;;1.40;1.20;;;;;;;30.98;27.72;93828.81;6146277;23;20021;-80
2021/06/15 09:08:30;;;;;;;2.72;1.35;;;;;;;30.62;28.48;93822.41;6200781;23;20050;-80
2021/06/15 09:10:56;;;;;;;1.88;1.20;;;;;;;30.36;28.04;93834.88;6199163;23;20310;-81
2021/06/15 09:13:39;;;;;;;4.65;1.35;;;;;;;29.33;28.57;93833.47;6206464;23;20079;-81
2021/06/15 09:16:28;;;;;;;12.85;1.73;;;;;;;29.48;28.82;93834.09;6208424;23;20514;-79
2021/06/15 09:18:56;;;;;;;5.03;1.50;;;;;;;29.50;29.51;93815.41;6212775;23;20379;-78
2021/06/15 09:21:31;;;;;;;3.97;1.30;;;;;;;29.49;29.33;93814.63;6169943;23;20365;-79
2021/06/15 09:24:26;;;;;;;1.77;1.00;;;;;;;29.35;29.15;93816.75;6171189;23;20020;-79
2021/06/15 09:27:06;;;;;;;3.60;1.10;;;;;;;28.50;30.29;93815.59;6165036;23;20089;-79
2021/06/15 09:29:47;;;;;;;3.30;1.20;;;;;;;28.79;29.74;93811.47;6198167;23;20661;-79
2021/06/15 09:32:16;;;;;;;1.92;1.10;;;;;;;28.66;31.69;93813.13;6170437;23;20016;-78
2021/06/15 09:35:10;;;;;;;2.75;1.40;;;;;;;28.61;29.81;93810.84;6206265;23;20013;-81
2021/06/15 09:37:41;;;;;;;2.88;1.65;;;;;;;28.52;31.09;93810.53;6169830;23;20027;-78
2021/06/15 09:40:22;;;;;;;1.67;1.30;;;;;;;28.34;29.25;93797.13;6208932;23;20014;-78
2021/06/15 09:43:10;;;;;;;2.33;1.33;;;;;;;28.12;31.31;93805.81;6176680;23;20008;-78
2021/06/15 09:45:44;;;;;;;3.03;1.20;;;;;;;27.75;31.46;93793.63;6196104;23;20066;-78
2021/06/15 09:48:39;;;;;;;2.20;1.30;;;;;;;27.84;31.23;93793.94;6200762;23;20537;-79
2021/06/15 09:51:10;;;;;;;3.72;1.42;;;;;;;27.90;31.59;93780.72;6165083;23;20016;-79
2021/06/15 09:53:43;;;;;;;2.05;1.52;;;;;;;27.82;30.03;93788.13;6170038;23;20333;-79
2021/06/15 09:56:12;;;;;;;3.33;1.95;;;;;;;27.38;32.10;93786.00;6197821;23;20423;-79
2021/06/15 09:58:41;;;;;;;4.53;1.60;;;;;;;27.51;33.01;93789.09;6204116;23;20017;-80
2021/06/15 10:01:06;;;;;;;4.78;1.67;;;;;;;27.46;32.32;93786.75;6196302;23;20058;-79
2021/06/15 10:03:32;;;;;;;2.88;1.40;;;;;;;27.14;32.47;93784.16;6198045;23;20016;-77
2021/06/15 10:05:57;;;;;;;1.92;1.48;;;;;;;26.68;33.97;93787.72;6197384;23;20099;-79
2021/06/15 10:08:42;;;;;;;3.72;1.70;;;;;;;26.84;34.29;93787.31;6162717;23;20021;-79
2021/06/15 10:11:07;;;;;;;4.93;2.50;;;;;;;26.69;33.42;93793.94;6165570;23;20013;-80
2021/06/15 10:13:33;;;;;;;5.10;1.80;;;;;;;26.59;33.89;93790.06;6169906;23;20039;-80
2021/06/15 10:15:58;;;;;;;3.45;1.75;;;;;;;26.23;34.48;93778.50;6211793;23;20486;-80
2021/06/15 10:18:24;;;;;;;1.75;1.23;;;;;;;25.95;33.91;93794.69;6194915;23;20067;-79
2021/06/15 10:20:51;;;;;;;3.55;1.65;;;;;;;26.00;33.74;93788.91;6198005;23;20027;-79
2021/06/15 10:23:16;;;;;;;2.78;1.63;;;;;;;25.93;34.85;93788.91;6200689;23;20016;-79
2021/06/15 10:25:43;;;;;;;4.07;1.50;;;;;;;26.05;33.24;93785.81;6194017;23;20108;-79
2021/06/15 10:28:13;;;;;;;5.88;1.20;;;;;;;26.13;33.23;93779.25;6176611;23;20439;-80
2021/06/15 10:30:42;;;;;;;2.13;1.17;;;;;;;25.77;34.04;93793.91;6148928;23;20599;-80
2021/06/15 10:33:25;;;;;;;5.38;1.40;;;;;;;25.58;33.85;93792.31;6154332;23;21872;-79
2021/06/15 10:35:53;;;;;;;1.98;1.35;;;;;;;25.92;35.13;93779.22;6170662;23;20012;-79
2021/06/15 10:38:42;;;;;;;10.93;1.48;;;;;;;26.03;34.17;93769.19;6168621;23;20021;-79
2021/06/15 10:41:18;;;;;;;5.53;0.90;;;;;;;26.08;32.48;93766.09;6202406;23;20025;-81
2021/06/15 10:43:44;;;;;;;2.08;1.33;;;;;;;26.23;33.56;93773.09;6198739;23;20008;-79
2021/06/15 10:46:35;;;;;;;1.33;1.10;;;;;;;25.76;32.71;93766.06;6196657;23;20024;-82
2021/06/15 10:49:03;;;;;;;1.77;1.10;;;;;;;25.80;33.06;93766.84;6172164;23;20020;-79
2021/06/15 10:51:44;;;;;;;2.75;1.17;;;;;;;25.72;32.68;93769.91;6197743;23;20556;-78
2021/06/15 10:54:29;;;;;;;1.33;0.95;;;;;;;25.37;33.52;93768.66;6196119;23;20021;-79
2021/06/15 10:57:13;;;;;;;2.15;1.38;;;;;;;25.66;33.14;93766.81;6170559;23;20012;-80
2021/06/15 11:00:03;;;;;;;2.97;1.20;;;;;;;25.62;33.82;93759.84;6193438;23;20438;-80
2021/06/15 11:02:31;;;;;;;2.78;1.15;;;;;;;25.64;35.53;93736.66;6168383;23;20096;-78
2021/06/15 11:04:58;;;;;;;3.58;1.35;;;;;;;25.42;34.67;93746.63;6193399;23;20511;-82
2021/06/15 11:07:26;;;;;;;5.85;1.23;;;;;;;25.50;35.07;93731.22;6206572;23;20012;-79
2021/06/15 11:09:51;;;;;;;4.30;1.38;;;;;;;25.37;34.68;93744.31;6200631;23;20012;-79
2021/06/15 11:12:19;;;;;;;5.55;1.30;;;;;;;25.23;34.47;93738.84;6196890;23;20009;-80
2021/06/15 11:15:08;;;;;;;2.13;1.38;;;;;;;25.15;35.33;93748.13;6173313;23;20051;-79
2021/06/15 11:17:44;;;;;;;3.67;1.30;;;;;;;25.23;35.98;93732.66;6203862;23;20040;-79
2021/06/15 11:20:10;;;;;;;2.25;1.23;;;;;;;25.25;35.47;93744.66;6203449;23;20610;-79
2021/06/15 11:22:36;;;;;;;4.15;1.45;;;;;;;25.28;35.98;93737.72;6165870;23;20427;-78
2021/06/15 11:25:03;;;;;;;5.20;1.73;;;;;;;25.31;35.96;93743.16;6205249;23;20005;-78
2021/06/15 11:27:28;;;;;;;3.17;1.50;;;;;;;25.17;35.93;93740.38;6193337;23;20006;-78
2021/06/15 11:30:14;;;;;;;4.90;1.63;;;;;;;25.40;35.64;93742.78;6200288;23;20019;-79
2021/06/15 11:32:55;;;;;;;6.10;1.67;;;;;;;25.34;35.76;93744.31;6196584;23;20025;-79
2021/06/15 11:35:20;;;;;;;6.18;1.88;;;;;;;24.98;35.15;93743.41;6203640;23;20032;-79
2021/06/15 11:37:49;;;;;;;3.42;1.30;;;;;;;24.74;35.92;93735.91;6205810;23;20009;-78
2021/06/15 11:40:19;;;;;;;4.65;1.50;;;;;;;24.64;36.42;93745.53;6208181;23;20317;-79
2021/06/15 11:42:50;;;;;;;7.90;1.45;;;;;;;24.37;37.30;93736.91;6201615;23;19993;-79
2021/06/15 11:45:20;;;;;;;1.83;1.40;;;;;;;24.46;36.67;93736.56;6199970;23;20127;-78
2021/06/15 11:47:48;;;;;;;2.38;2.05;;;;;;;24.48;37.39;93731.56;6200909;23;20016;-78
2021/06/15 11:50:27;;;;;;;7.55;2.17;;;;;;;24.47;38.41;93735.41;6199110;23;20207;-79